createdAt,value
2022-10-29T00:01:14.582Z,99.24
2022-10-29T00:03:42.940Z,99.61
2022-10-29T00:06:12.993Z,100.00
2022-10-29T00:08:42.502Z,100.00
2022-10-29T00:11:15.550Z,100.00
2022-10-29T00:13:44.242Z,100.00
2022-10-29T00:16:15.288Z,100.00
2022-10-29T00:18:43.931Z,100.00
2022-10-29T00:21:14.575Z,100.00
2022-10-29T00:23:43.334Z,100.00
2022-10-29T00:26:13.641Z,100.00
2022-10-29T00:28:42.209Z,100.00
2022-10-29T00:31:13.748Z,100.00
2022-10-29T00:33:42.135Z,100.00
2022-10-29T00:36:12.667Z,100.00
2022-10-29T00:38:41.275Z,100.00
2022-10-29T00:41:14.628Z,100.00
2022-10-29T00:43:48.355Z,100.00
2022-10-29T00:46:25.664Z,100.00
2022-10-29T00:48:57.945Z,100.00
2022-10-29T00:51:27.187Z,100.00
2022-10-29T00:53:59.313Z,100.00
2022-10-29T00:56:31.552Z,100.00
2022-10-29T00:59:00.326Z,100.00
2022-10-29T01:01:28.991Z,100.00
2022-10-29T01:04:00.055Z,100.00
2022-10-29T01:06:31.875Z,100.00
2022-10-29T01:09:00.205Z,100.00
2022-10-29T01:11:40.026Z,100.00
2022-10-29T01:14:21.059Z,100.00
2022-10-29T01:17:01.209Z,100.00
2022-10-29T01:19:53.407Z,100.00
2022-10-29T01:22:28.898Z,100.00
2022-10-29T01:25:07.946Z,100.00
2022-10-29T01:28:00.274Z,100.00
2022-10-29T01:30:49.211Z,100.00
2022-10-29T01:33:24.071Z,100.00
2022-10-29T01:35:59.969Z,100.00
2022-10-29T01:38:35.701Z,100.00
2022-10-29T01:41:13.718Z,100.00
2022-10-29T01:43:48.080Z,100.00
2022-10-29T01:46:22.788Z,100.00
2022-10-29T01:48:55.144Z,100.00
2022-10-29T01:51:27.560Z,100.00
2022-10-29T01:53:58.525Z,100.00
2022-10-29T01:56:26.943Z,100.00
2022-10-29T01:59:00.440Z,100.00
2022-10-29T02:01:41.207Z,100.00
2022-10-29T02:04:25.405Z,100.00
2022-10-29T02:07:01.249Z,100.00
2022-10-29T02:09:34.532Z,100.00
2022-10-29T02:12:09.536Z,100.00
2022-10-29T02:14:41.848Z,100.00
2022-10-29T02:17:11.549Z,100.00
2022-10-29T02:19:39.915Z,100.00
2022-10-29T02:22:08.349Z,100.00
2022-10-29T02:24:36.777Z,100.00
2022-10-29T02:27:05.208Z,100.00
2022-10-29T02:29:33.582Z,100.00
2022-10-29T02:32:01.897Z,100.00
2022-10-29T02:34:31.656Z,100.00
2022-10-29T02:37:00.039Z,100.00
2022-10-29T02:39:28.529Z,100.00
2022-10-29T02:41:56.955Z,100.00
2022-10-29T02:44:25.433Z,100.00
2022-10-29T02:46:53.923Z,100.00
2022-10-29T02:49:22.337Z,100.00
2022-10-29T02:51:52.356Z,100.00
2022-10-29T02:54:20.687Z,100.00
2022-10-29T02:56:48.990Z,100.00
2022-10-29T02:59:17.314Z,100.00
2022-10-29T03:01:45.742Z,100.00
2022-10-29T03:04:14.360Z,100.00
2022-10-29T03:06:42.710Z,100.00
2022-10-29T03:09:12.846Z,100.00
2022-10-29T03:11:41.187Z,100.00
2022-10-29T03:14:09.470Z,100.00
2022-10-29T03:16:37.906Z,100.00
2022-10-29T03:19:06.253Z,100.00
2022-10-29T03:21:34.587Z,100.00
2022-10-29T03:24:02.920Z,100.00
2022-10-29T03:26:32.580Z,100.00
2022-10-29T03:29:01.083Z,100.00
2022-10-29T03:31:29.458Z,100.00
2022-10-29T03:33:57.828Z,100.00
2022-10-29T03:36:26.398Z,100.00
2022-10-29T03:38:54.755Z,100.00
2022-10-29T03:41:23.154Z,100.00
2022-10-29T03:43:53.076Z,100.00
2022-10-29T03:46:21.429Z,100.00
2022-10-29T03:48:51.131Z,100.00
2022-10-29T03:51:19.453Z,100.00
2022-10-29T03:53:47.826Z,100.00
2022-10-29T03:56:16.182Z,100.00
2022-10-29T03:58:44.577Z,100.00
2022-10-29T04:01:14.299Z,100.00
2022-10-29T04:03:43.963Z,100.00
2022-10-29T04:06:13.814Z,100.00
2022-10-29T04:08:42.491Z,100.00
2022-10-29T04:11:13.061Z,100.00
2022-10-29T04:13:41.418Z,100.00
2022-10-29T04:16:09.850Z,100.00
2022-10-29T04:18:39.600Z,100.00
2022-10-29T04:29:33.531Z,100.00
2022-10-29T04:32:01.887Z,100.00
2022-10-29T04:34:31.586Z,100.00
2022-10-29T04:36:59.900Z,100.00
2022-10-29T04:39:28.184Z,100.00
2022-10-29T04:41:56.540Z,100.00
2022-10-29T04:44:24.938Z,100.00
2022-10-29T04:46:53.429Z,100.00
2022-10-29T04:49:21.822Z,100.00
2022-10-29T04:51:51.544Z,100.00
2022-10-29T04:54:19.862Z,100.00
2022-10-29T04:56:48.365Z,100.00
2022-10-29T04:59:17.087Z,100.00
2022-10-29T05:01:45.476Z,100.00
2022-10-29T05:04:13.811Z,100.00
2022-10-29T05:06:42.147Z,100.00
2022-10-29T05:09:12.013Z,100.00
2022-10-29T05:11:40.630Z,100.00
2022-10-29T05:14:08.941Z,100.00
2022-10-29T05:16:37.491Z,100.00
2022-10-29T05:19:06.599Z,100.00
2022-10-29T05:21:34.955Z,100.00
2022-10-29T05:24:03.301Z,100.00
2022-10-29T05:26:33.160Z,100.00
2022-10-29T05:29:01.550Z,100.00
2022-10-29T05:31:29.894Z,100.00
2022-10-29T05:33:58.535Z,100.00
2022-10-29T05:36:26.867Z,100.00
2022-10-29T05:38:55.203Z,100.00
2022-10-29T05:41:23.488Z,100.00
2022-10-29T05:43:53.272Z,100.00
2022-10-29T05:46:21.614Z,100.00
2022-10-29T05:48:49.975Z,100.00
2022-10-29T05:51:20.867Z,100.00
2022-10-29T05:53:49.672Z,100.00
2022-10-29T05:56:18.305Z,100.00
2022-10-29T05:58:50.114Z,100.00
2022-10-29T06:01:20.323Z,100.00
2022-10-29T06:03:48.805Z,100.00
2022-10-29T06:06:17.191Z,100.00
2022-10-29T06:08:45.761Z,100.00
2022-10-29T06:11:14.081Z,100.00
2022-10-29T06:13:42.798Z,100.00
2022-10-29T06:16:11.192Z,100.00
2022-10-29T06:18:40.944Z,100.00
2022-10-29T06:21:09.380Z,100.00
2022-10-29T06:23:37.943Z,100.00
2022-10-29T06:26:06.723Z,100.00
2022-10-29T06:28:35.764Z,100.00
2022-10-29T06:31:04.146Z,100.00
2022-10-29T06:33:32.827Z,100.00
2022-10-29T06:36:02.621Z,100.00
2022-10-29T06:38:30.960Z,100.00
2022-10-29T06:40:59.415Z,100.00
2022-10-29T06:43:27.821Z,100.00
2022-10-29T06:45:56.371Z,100.00
2022-10-29T06:48:24.873Z,100.00
2022-10-29T06:50:54.189Z,100.00
2022-10-29T06:53:23.968Z,100.00
2022-10-29T06:55:52.335Z,100.00
2022-10-29T06:58:21.928Z,100.00
2022-10-29T07:00:50.388Z,100.00
2022-10-29T07:03:20.445Z,100.00
2022-10-29T07:05:49.206Z,100.00
2022-10-29T07:08:17.568Z,100.00
2022-10-29T07:10:51.816Z,100.00
2022-10-29T07:13:20.317Z,100.00
2022-10-29T07:15:49.251Z,100.00
2022-10-29T07:18:17.626Z,100.00
2022-10-29T07:20:46.962Z,100.00
2022-10-29T07:23:15.498Z,100.00
2022-10-29T07:25:43.949Z,100.00
2022-10-29T07:28:16.186Z,100.00
2022-10-29T07:30:45.608Z,100.00
2022-10-29T07:33:14.577Z,100.00
2022-10-29T07:35:44.169Z,100.00
2022-10-29T07:38:14.023Z,100.00
2022-10-29T07:40:48.000Z,100.00
2022-10-29T07:43:21.821Z,100.00
2022-10-29T07:45:51.522Z,99.93
2022-10-29T07:48:21.198Z,100.00
2022-10-29T07:50:50.372Z,99.86
2022-10-29T07:53:18.752Z,96.43
2022-10-29T07:55:53.430Z,94.88
2022-10-29T07:58:23.889Z,92.57
2022-10-29T08:00:52.803Z,91.82
2022-10-29T08:03:21.256Z,89.33
2022-10-29T08:05:55.381Z,87.50
2022-10-29T08:08:25.130Z,86.39
2022-10-29T08:10:53.511Z,85.58
2022-10-29T08:13:23.262Z,84.57
2022-10-29T08:15:51.911Z,83.34
2022-10-29T08:18:20.491Z,82.42
2022-10-29T08:20:49.201Z,81.26
2022-10-29T08:23:17.911Z,80.74
2022-10-29T08:25:46.451Z,78.92
2022-10-29T08:28:16.399Z,78.23
2022-10-29T08:30:50.117Z,77.59
2022-10-29T08:33:18.582Z,76.39
2022-10-29T08:35:46.977Z,75.61
2022-10-29T08:38:15.461Z,75.93
2022-10-29T08:41:06.683Z,74.79
2022-10-29T08:46:38.563Z,75.18
2022-10-29T08:49:15.168Z,74.30
2022-10-29T08:51:47.083Z,73.95
2022-10-29T08:54:30.326Z,73.74
2022-10-29T08:57:16.100Z,71.81
2022-10-29T09:00:05.058Z,71.58
2022-10-29T09:02:35.026Z,70.57
2022-10-29T09:05:03.934Z,69.78
2022-10-29T09:08:06.328Z,70.38
2022-10-29T09:10:43.698Z,70.10
2022-10-29T09:13:43.071Z,69.72
2022-10-29T09:16:26.395Z,69.63
2022-10-29T09:19:13.350Z,68.86
2022-10-29T09:21:48.793Z,69.32
2022-10-29T09:24:26.808Z,69.66
2022-10-29T09:26:59.082Z,69.15
2022-10-29T09:29:45.924Z,69.55
2022-10-29T09:32:18.873Z,68.36
2022-10-29T09:34:51.780Z,67.48
2022-10-29T09:37:24.628Z,65.52
2022-10-29T09:39:54.304Z,64.20
2022-10-29T09:42:27.629Z,64.79
2022-10-29T09:44:59.420Z,63.98
2022-10-29T09:47:39.753Z,63.65
2022-10-29T09:50:19.891Z,62.14
2022-10-29T09:52:50.185Z,61.95
2022-10-29T09:55:24.788Z,62.83
2022-10-29T09:57:54.970Z,63.26
2022-10-29T10:00:25.794Z,62.44
2022-10-29T10:03:01.259Z,62.86
2022-10-29T10:05:33.770Z,62.70
2022-10-29T10:08:08.328Z,62.39
2022-10-29T10:10:40.566Z,62.14
2022-10-29T10:13:17.159Z,62.21
2022-10-29T10:15:52.997Z,60.75
2022-10-29T10:18:24.237Z,58.82
2022-10-29T10:21:06.451Z,57.81
2022-10-29T10:23:44.068Z,57.01
2022-10-29T10:26:31.355Z,55.62
2022-10-29T10:29:15.260Z,55.65
2022-10-29T10:31:45.183Z,53.81
2022-10-29T10:34:17.832Z,52.54
2022-10-29T10:36:51.602Z,50.52
2022-10-29T10:39:27.592Z,49.12
2022-10-29T10:41:57.584Z,48.68
2022-10-29T10:44:27.826Z,46.91
2022-10-29T10:46:59.087Z,46.04
2022-10-29T10:49:33.044Z,45.59
2022-10-29T10:52:05.454Z,43.57
2022-10-29T10:54:38.013Z,42.19
2022-10-29T10:57:21.005Z,41.35
2022-10-29T10:59:57.839Z,39.23
2022-10-29T11:02:34.990Z,40.28
2022-10-29T11:05:15.090Z,39.85
2022-10-29T11:07:49.847Z,39.23
2022-10-29T11:10:20.133Z,40.41
2022-10-29T11:12:54.321Z,41.46
2022-10-29T11:15:38.721Z,42.66
2022-10-29T11:20:50.136Z,45.57
2022-10-29T11:23:30.380Z,45.72
2022-10-29T11:26:07.890Z,46.58
2022-10-29T11:28:39.947Z,45.61
2022-10-29T11:31:17.314Z,45.53
2022-10-29T11:33:53.992Z,43.93
2022-10-29T11:36:24.653Z,43.11
2022-10-29T11:39:00.954Z,43.73
2022-10-29T11:41:35.990Z,43.03
2022-10-29T11:44:05.423Z,40.92
2022-10-29T11:46:43.252Z,39.48
2022-10-29T11:49:25.151Z,38.69
2022-10-29T11:52:06.345Z,37.62
2022-10-29T11:54:51.064Z,39.56
2022-10-29T11:57:26.046Z,41.64
2022-10-29T12:00:06.310Z,42.28
2022-10-29T12:03:22.687Z,43.35
2022-10-29T12:05:59.578Z,44.19
2022-10-29T12:08:42.994Z,44.39
2022-10-29T12:11:23.595Z,45.22
2022-10-29T12:14:02.702Z,43.42
2022-10-29T12:16:41.444Z,42.92
2022-10-29T12:19:43.305Z,40.80
2022-10-29T12:22:25.374Z,39.00
2022-10-29T12:25:12.565Z,38.34
2022-10-29T12:27:48.389Z,39.57
2022-10-29T12:30:19.040Z,40.13
2022-10-29T12:32:59.195Z,40.43
2022-10-29T12:35:34.756Z,41.20
2022-10-29T12:38:16.516Z,42.20
2022-10-29T12:40:47.237Z,42.75
2022-10-29T12:43:26.841Z,42.76
2022-10-29T12:46:19.577Z,42.76
2022-10-29T12:48:59.403Z,41.90
2022-10-29T12:51:36.542Z,41.65
2022-10-29T12:54:37.370Z,41.34
2022-10-29T12:57:07.861Z,41.49
2022-10-29T12:59:38.228Z,41.79
2022-10-29T13:02:26.777Z,42.66
2022-10-29T13:05:32.973Z,43.04
2022-10-29T13:08:20.148Z,42.91
2022-10-29T13:10:53.840Z,43.01
2022-10-29T13:13:36.347Z,43.55
2022-10-29T13:16:13.744Z,44.70
2022-10-29T13:18:50.590Z,44.82
2022-10-29T13:21:56.565Z,45.70
2022-10-29T13:24:25.704Z,45.54
2022-10-29T13:26:56.676Z,46.44
2022-10-29T13:29:45.055Z,45.72
2022-10-29T13:32:35.399Z,46.00
2022-10-29T13:35:06.657Z,46.80
2022-10-29T13:38:11.844Z,47.01
2022-10-29T13:40:56.386Z,49.62
2022-10-29T13:43:25.349Z,49.72
2022-10-29T13:46:08.038Z,49.96
2022-10-29T13:48:38.803Z,49.60
2022-10-29T13:51:11.079Z,48.43
2022-10-29T13:53:48.085Z,49.25
2022-10-29T13:56:21.725Z,49.88
2022-10-29T13:58:53.842Z,50.28
2022-10-29T14:01:23.965Z,50.71
2022-10-29T14:04:01.790Z,50.65
2022-10-29T14:06:34.348Z,52.64
2022-10-29T14:09:21.173Z,51.75
2022-10-29T14:11:58.409Z,52.83
2022-10-29T14:14:34.487Z,51.89
2022-10-29T14:17:13.475Z,51.09
2022-10-29T14:19:47.603Z,51.72
2022-10-29T14:22:37.629Z,50.87
2022-10-29T14:25:35.652Z,50.93
2022-10-29T14:28:14.481Z,50.36
2022-10-29T14:30:42.980Z,50.02
2022-10-29T14:33:24.978Z,49.47
2022-10-29T14:36:02.500Z,48.58
2022-10-29T14:38:37.934Z,47.81
2022-10-29T14:41:06.692Z,47.21
2022-10-29T14:43:36.012Z,46.71
2022-10-29T14:46:13.925Z,47.10
2022-10-29T14:48:52.557Z,46.32
2022-10-29T14:51:23.422Z,45.17
2022-10-29T14:53:59.972Z,45.28
2022-10-29T14:56:34.861Z,44.95
2022-10-29T14:59:04.388Z,44.93
2022-10-29T15:01:32.895Z,45.28
2022-10-29T15:04:01.931Z,45.10
2022-10-29T15:06:36.805Z,44.92
2022-10-29T15:09:06.614Z,45.37
2022-10-29T15:11:38.397Z,45.75
2022-10-29T15:17:00.720Z,46.80
2022-10-29T15:19:29.775Z,46.31
2022-10-29T15:22:00.560Z,46.76
2022-10-29T15:24:28.949Z,46.84
2022-10-29T15:27:00.174Z,47.58
2022-10-29T15:32:03.186Z,47.00
2022-10-29T15:34:35.025Z,47.51
2022-10-29T15:37:26.948Z,47.92
2022-10-29T15:40:10.028Z,48.19
2022-10-29T15:42:38.419Z,48.48
2022-10-29T15:45:24.753Z,48.61
2022-10-29T15:47:59.284Z,49.09
2022-10-29T15:50:31.892Z,49.19
2022-10-29T15:53:05.692Z,49.44
2022-10-29T15:55:35.922Z,49.08
2022-10-29T15:58:06.961Z,49.02
2022-10-29T16:00:35.368Z,49.00
2022-10-29T16:03:14.137Z,49.55
2022-10-29T16:05:43.989Z,49.59
2022-10-29T16:08:24.312Z,49.52
2022-10-29T16:10:52.738Z,50.01
2022-10-29T16:13:22.878Z,49.87
2022-10-29T16:15:51.387Z,49.65
2022-10-29T16:18:20.043Z,49.69
2022-10-29T16:20:48.913Z,50.09
2022-10-29T16:23:18.928Z,50.01
2022-10-29T16:25:47.304Z,50.09
2022-10-29T16:28:15.651Z,50.08
2022-10-29T16:30:45.276Z,50.12
2022-10-29T16:33:13.828Z,50.31
2022-10-29T16:35:42.212Z,50.39
2022-10-29T16:38:11.099Z,50.49
2022-10-29T16:40:42.603Z,50.48
2022-10-29T16:43:11.020Z,50.62
2022-10-29T16:45:41.268Z,50.50
2022-10-29T16:48:09.641Z,50.45
2022-10-29T16:50:37.972Z,50.63
2022-10-29T16:53:08.898Z,50.92
2022-10-29T16:55:45.206Z,50.79
2022-10-29T16:58:15.956Z,50.83
2022-10-29T17:00:44.662Z,51.28
2022-10-29T17:03:14.349Z,50.86
2022-10-29T17:05:44.835Z,50.54
2022-10-29T17:08:13.839Z,50.96
2022-10-29T17:10:43.820Z,50.61
2022-10-29T17:13:13.402Z,50.83
2022-10-29T17:15:42.582Z,50.86
2022-10-29T17:18:11.156Z,50.82
2022-10-29T17:20:39.531Z,51.12
2022-10-29T17:23:08.128Z,50.71
2022-10-29T17:25:36.465Z,50.57
2022-10-29T17:28:06.275Z,50.72
2022-10-29T17:30:35.194Z,51.06
2022-10-29T17:33:03.495Z,50.86
2022-10-29T17:35:31.860Z,50.91
2022-10-29T17:38:00.138Z,51.09
2022-10-29T17:40:28.559Z,51.46
2022-10-29T17:42:57.102Z,51.61
2022-10-29T17:45:27.048Z,51.74
2022-10-29T17:47:56.484Z,51.69
2022-10-29T17:50:26.166Z,52.21
2022-10-29T17:52:57.650Z,52.13
2022-10-29T17:55:26.159Z,52.14
2022-10-29T17:57:54.689Z,52.12
2022-10-29T18:00:23.280Z,52.79
2022-10-29T18:02:53.185Z,52.60
2022-10-29T18:05:21.799Z,52.44
2022-10-29T18:07:50.104Z,52.93
2022-10-29T18:10:18.737Z,53.11
2022-10-29T18:12:47.152Z,52.05
2022-10-29T18:15:15.905Z,52.14
2022-10-29T18:17:44.716Z,52.02
2022-10-29T18:20:14.532Z,51.61
2022-10-29T18:22:43.101Z,51.26
2022-10-29T18:25:12.142Z,51.77
2022-10-29T18:27:41.074Z,52.10
2022-10-29T18:30:10.543Z,51.98
2022-10-29T18:32:38.949Z,51.63
2022-10-29T18:35:11.324Z,52.28
2022-10-29T18:37:41.084Z,52.36
2022-10-29T18:40:10.802Z,52.76
2022-10-29T18:42:39.274Z,52.38
2022-10-29T18:45:08.909Z,52.54
2022-10-29T18:47:37.314Z,52.17
2022-10-29T18:50:06.445Z,52.08
2022-10-29T18:52:34.932Z,51.91
2022-10-29T18:55:05.006Z,52.43
2022-10-29T18:57:33.513Z,52.71
2022-10-29T19:00:01.813Z,52.20
2022-10-29T19:02:30.474Z,52.22
2022-10-29T19:04:58.879Z,52.43
2022-10-29T19:07:27.247Z,52.50
2022-10-29T19:09:55.692Z,52.36
2022-10-29T19:12:25.479Z,52.66
2022-10-29T19:14:54.257Z,52.64
2022-10-29T19:17:22.573Z,53.09
2022-10-29T19:19:50.869Z,53.50
2022-10-29T19:22:19.281Z,53.66
2022-10-29T19:24:47.640Z,54.05
2022-10-29T19:27:15.965Z,54.24
2022-10-29T19:29:45.657Z,54.11
2022-10-29T19:32:14.038Z,54.61
2022-10-29T19:34:43.823Z,55.20
2022-10-29T19:37:12.195Z,55.37
2022-10-29T19:39:40.602Z,55.36
2022-10-29T19:42:09.137Z,55.33
2022-10-29T19:44:37.480Z,55.90
2022-10-29T19:47:07.211Z,56.07
2022-10-29T19:49:35.658Z,56.43
2022-10-29T19:52:04.162Z,56.66
2022-10-29T19:54:32.489Z,56.76
2022-10-29T19:57:00.879Z,56.86
2022-10-29T19:59:29.209Z,57.30
2022-10-29T20:01:57.686Z,57.81
2022-10-29T20:04:27.527Z,57.76
2022-10-29T20:06:55.866Z,57.51
2022-10-29T20:09:24.247Z,57.77
2022-10-29T20:11:52.596Z,58.41
2022-10-29T20:14:24.055Z,57.96
2022-10-29T20:16:54.900Z,57.73
2022-10-29T20:19:23.281Z,57.43
2022-10-29T20:21:53.091Z,57.37
2022-10-29T20:24:21.572Z,57.51
2022-10-29T20:26:49.920Z,57.48
2022-10-29T20:29:18.241Z,57.80
2022-10-29T20:31:46.598Z,57.78
2022-10-29T20:34:15.246Z,57.58
2022-10-29T20:36:46.127Z,57.68
2022-10-29T20:39:16.461Z,57.44
2022-10-29T20:41:44.874Z,57.67
2022-10-29T20:44:13.181Z,58.06
2022-10-29T20:46:43.657Z,58.48
2022-10-29T20:49:12.291Z,59.22
2022-10-29T20:51:40.632Z,59.07
2022-10-29T20:54:36.841Z,59.49
2022-10-29T20:57:05.396Z,60.63
2022-10-29T20:59:33.937Z,61.72
2022-10-29T21:02:07.791Z,61.84
2022-10-29T21:04:44.261Z,61.60
2022-10-29T21:07:12.848Z,62.51
2022-10-29T21:09:42.541Z,62.43
2022-10-29T21:12:22.238Z,62.02
2022-10-29T21:14:55.053Z,61.05
2022-10-29T21:17:27.189Z,60.36
2022-10-29T21:19:58.638Z,60.71
2022-10-29T21:22:30.823Z,60.54
2022-10-29T21:25:04.764Z,60.20
2022-10-29T21:27:33.427Z,60.44
2022-10-29T21:30:05.361Z,60.33
2022-10-29T21:32:38.155Z,61.20
2022-10-29T21:35:11.863Z,61.24
2022-10-29T21:37:42.163Z,61.15
2022-10-29T21:40:15.264Z,61.20
2022-10-29T21:42:43.674Z,61.24
2022-10-29T21:45:18.089Z,60.79
2022-10-29T21:47:46.621Z,60.30
2022-10-29T21:50:17.389Z,60.16
2022-10-29T21:52:52.116Z,59.43
2022-10-29T21:55:28.889Z,58.93
2022-10-29T21:57:57.621Z,58.94
2022-10-29T22:00:26.674Z,59.58
2022-10-29T22:02:57.946Z,59.32
2022-10-29T22:05:28.832Z,58.73
2022-10-29T22:07:58.268Z,58.78
2022-10-29T22:10:30.713Z,58.97
2022-10-29T22:12:59.566Z,59.44
2022-10-29T22:15:28.178Z,58.73
2022-10-29T22:17:56.501Z,58.92
2022-10-29T22:20:25.018Z,59.80
2022-10-29T22:22:53.375Z,59.18
2022-10-29T22:25:21.792Z,59.20
2022-10-29T22:27:51.733Z,59.90
2022-10-29T22:30:20.131Z,59.35
2022-10-29T22:32:48.460Z,59.85
2022-10-29T22:35:16.903Z,60.26
2022-10-29T22:37:45.515Z,60.50
2022-10-29T22:40:13.956Z,60.84
2022-10-29T22:42:42.341Z,60.45
2022-10-29T22:45:12.398Z,61.56
2022-10-29T22:47:40.774Z,61.62
2022-10-29T22:50:09.924Z,61.44
2022-10-29T22:52:38.324Z,61.80
2022-10-29T22:55:08.135Z,62.41
2022-10-29T22:57:36.676Z,63.07
2022-10-29T23:00:05.965Z,63.10
2022-10-29T23:02:35.779Z,63.42
2022-10-29T23:05:04.270Z,64.15
2022-10-29T23:10:03.606Z,64.26
2022-10-29T23:12:34.537Z,64.19
2022-10-29T23:15:03.031Z,65.17
2022-10-29T23:17:31.472Z,65.61
2022-10-29T23:20:01.276Z,64.36
2022-10-29T23:22:29.656Z,64.12
2022-10-29T23:24:58.107Z,63.80
2022-10-29T23:27:26.503Z,64.25
2022-10-29T23:29:54.926Z,64.11
2022-10-29T23:32:23.320Z,63.67
2022-10-29T23:34:51.664Z,63.64
2022-10-29T23:37:21.422Z,63.30
2022-10-29T23:39:50.555Z,63.00
2022-10-29T23:42:18.992Z,63.53
2022-10-29T23:44:47.417Z,63.83
2022-10-29T23:47:15.779Z,63.71
2022-10-29T23:49:44.109Z,64.15
2022-10-29T23:52:12.508Z,63.95
2022-10-29T23:54:42.368Z,63.97
2022-10-29T23:57:10.702Z,65.05
2022-10-29T23:59:40.204Z,64.96
